Time;durP1;ratioP1;P1;durP2;ratioP2;P2;SDS_P1;SDS_P2;PMS_P1;PMS_P2;Temp;Humidity;BMP_temperature;BMP_pressure;BME280_temperature;BME280_humidity;BME280_pressure;Samples;Min_cycle;Max_cycle;Signal;HPM_P1;HPM_P2
2021/11/28 00:00:27;;;;;;;20.13;11.30;;;5.10;99.90;;;;;;4994217;28;20728;-54
2021/11/28 00:02:55;;;;;;;18.83;10.27;;;5.20;99.90;;;;;;4996242;28;20209;-53
2021/11/28 00:05:24;;;;;;;19.80;10.97;;;5.10;99.90;;;;;;4994567;28;20298;-55
2021/11/28 00:13:22;;;;;;;26.17;11.80;;;5.30;99.90;;;;;;4993351;28;20320;-54
2021/11/28 00:15:49;;;;;;;20.70;11.30;;;5.20;99.90;;;;;;4995569;28;20204;-54
2021/11/28 00:18:16;;;;;;;20.77;11.37;;;5.20;99.90;;;;;;4994330;28;20892;-53
2021/11/28 00:20:43;;;;;;;19.07;11.87;;;5.20;99.90;;;;;;4996587;28;20202;-55
2021/11/28 00:23:10;;;;;;;19.83;12.00;;;5.20;99.90;;;;;;4997506;28;20201;-54
2021/11/28 00:25:37;;;;;;;22.10;11.80;;;5.20;99.90;;;;;;4997918;28;20198;-54
2021/11/28 00:28:04;;;;;;;21.77;12.50;;;5.20;99.90;;;;;;4996991;28;20197;-52
2021/11/28 00:30:31;;;;;;;19.63;12.57;;;5.30;99.90;;;;;;4998274;28;20289;-55
2021/11/28 00:33:00;;;;;;;23.03;12.27;;;5.20;99.90;;;;;;4996487;28;20654;-54
2021/11/28 00:35:27;;;;;;;22.43;12.03;;;5.20;99.90;;;;;;4998605;28;20237;-54
2021/11/28 00:37:54;;;;;;;20.07;12.73;;;5.30;99.90;;;;;;4997554;28;20221;-54
2021/11/28 00:40:21;;;;;;;23.50;13.33;;;5.30;99.90;;;;;;4998463;28;20697;-54
2021/11/28 00:42:48;;;;;;;21.97;12.97;;;5.30;99.90;;;;;;4996066;28;20248;-53
2021/11/28 00:45:15;;;;;;;21.30;12.83;;;5.30;99.90;;;;;;4992503;28;20387;-54
2021/11/28 00:47:42;;;;;;;22.40;12.07;;;5.20;99.90;;;;;;4992810;28;20225;-55
2021/11/28 00:52:38;;;;;;;21.43;13.37;;;5.30;99.90;;;;;;4998437;28;20749;-53
2021/11/28 00:55:08;;;;;;;21.00;12.30;;;5.30;99.90;;;;;;4999291;28;20731;-52
2021/11/28 00:57:35;;;;;;;23.40;13.73;;;5.30;99.90;;;;;;4997653;28;20289;-54
2021/11/28 01:00:05;;;;;;;22.60;12.63;;;5.40;99.90;;;;;;4997368;28;20240;-53
2021/11/28 01:02:33;;;;;;;21.33;12.43;;;5.40;99.90;;;;;;4997260;28;20190;-53
2021/11/28 01:05:02;;;;;;;22.50;12.60;;;5.50;99.90;;;;;;4998109;28;20212;-54
2021/11/28 01:07:30;;;;;;;20.83;12.43;;;5.40;99.90;;;;;;5000946;28;20201;-52
2021/11/28 01:09:57;;;;;;;27.70;13.00;;;5.40;99.90;;;;;;5002730;28;20308;-54
2021/11/28 01:12:24;;;;;;;29.53;14.97;;;5.40;99.90;;;;;;5002157;28;20766;-54
2021/11/28 01:14:51;;;;;;;22.23;12.80;;;5.40;99.90;;;;;;5001522;28;20229;-52
2021/11/28 01:17:20;;;;;;;20.73;13.43;;;5.50;99.90;;;;;;4998617;28;20321;-55
2021/11/28 01:19:47;;;;;;;19.73;12.37;;;5.40;99.90;;;;;;5001671;28;20637;-53
2021/11/28 01:22:15;;;;;;;25.43;14.30;;;5.40;99.90;;;;;;5000790;28;20760;-52
2021/11/28 01:24:43;;;;;;;23.20;13.83;;;5.40;99.90;;;;;;5001015;28;20623;-54
2021/11/28 01:27:14;;;;;;;21.97;14.10;;;5.40;99.90;;;;;;5000490;28;20194;-55
2021/11/28 01:29:42;;;;;;;26.07;14.47;;;5.40;99.90;;;;;;5000452;28;20265;-55
2021/11/28 01:32:11;;;;;;;26.40;14.80;;;5.30;99.90;;;;;;5001666;28;20213;-53
2021/11/28 01:34:39;;;;;;;26.33;14.67;;;5.30;99.90;;;;;;5001457;28;20751;-54
2021/11/28 01:37:06;;;;;;;21.47;12.10;;;5.40;99.90;;;;;;5001118;28;20989;-54
2021/11/28 01:39:33;;;;;;;24.57;13.40;;;5.50;99.90;;;;;;5000619;28;20305;-54
2021/11/28 01:42:00;;;;;;;29.67;13.87;;;5.60;99.90;;;;;;5000885;28;20229;-55
2021/11/28 01:44:27;;;;;;;24.37;14.67;;;5.60;99.90;;;;;;5000943;28;20292;-54
2021/11/28 01:46:55;;;;;;;23.00;14.03;;;5.50;99.90;;;;;;4998744;28;22084;-54
2021/11/28 01:49:22;;;;;;;22.53;13.97;;;5.40;99.90;;;;;;5000555;28;20274;-54
2021/11/28 01:51:50;;;;;;;25.57;13.10;;;5.50;99.90;;;;;;4997994;28;20243;-55
2021/11/28 01:54:18;;;;;;;23.97;13.33;;;5.40;99.90;;;;;;4999429;28;20634;-53
2021/11/28 01:56:48;;;;;;;21.63;12.70;;;5.40;99.90;;;;;;4999354;28;20477;-55
2021/11/28 01:59:17;;;;;;;25.97;13.70;;;5.50;99.90;;;;;;5003409;28;20236;-53
2021/11/28 02:01:44;;;;;;;22.20;13.70;;;5.40;99.90;;;;;;4998168;28;20236;-55
2021/11/28 02:04:15;;;;;;;23.10;13.03;;;5.30;99.90;;;;;;5000925;28;20205;-54
2021/11/28 02:06:46;;;;;;;25.70;13.60;;;5.30;99.90;;;;;;4997590;28;20233;-53
2021/11/28 02:09:14;;;;;;;22.07;12.67;;;5.30;99.90;;;;;;4997159;28;20323;-53
2021/11/28 02:11:43;;;;;;;25.60;13.97;;;5.30;99.90;;;;;;4999943;28;20640;-54
2021/11/28 02:14:10;;;;;;;23.27;13.57;;;5.30;99.90;;;;;;4999444;28;20267;-53
2021/11/28 02:16:37;;;;;;;23.17;14.40;;;5.40;99.90;;;;;;4997173;28;20296;-56
2021/11/28 02:19:05;;;;;;;20.43;13.03;;;5.30;99.90;;;;;;4999602;28;20575;-53
2021/11/28 02:21:32;;;;;;;23.33;13.33;;;5.20;99.90;;;;;;4999689;28;20263;-52
2021/11/28 02:23:59;;;;;;;20.30;11.77;;;5.20;99.90;;;;;;4998623;28;20263;-54
2021/11/28 02:26:27;;;;;;;22.37;12.83;;;5.30;99.90;;;;;;4997954;28;20201;-53
2021/11/28 02:28:54;;;;;;;24.13;13.73;;;5.20;99.90;;;;;;4998958;28;20236;-55
2021/11/28 02:31:22;;;;;;;22.27;13.00;;;5.10;99.90;;;;;;4997836;28;20236;-53
2021/11/28 02:33:49;;;;;;;24.07;13.40;;;5.10;99.90;;;;;;4999680;28;20267;-60
2021/11/28 02:36:16;;;;;;;22.13;13.40;;;5.00;99.90;;;;;;4998443;28;20798;-54
2021/11/28 02:38:43;;;;;;;22.63;12.57;;;5.10;99.90;;;;;;4999830;28;20469;-53
2021/11/28 02:41:10;;;;;;;24.80;13.80;;;5.10;99.90;;;;;;4999584;28;20205;-52
2021/11/28 02:43:37;;;;;;;22.63;13.67;;;5.20;99.90;;;;;;4997770;28;20282;-53
2021/11/28 02:46:08;;;;;;;22.80;13.03;;;5.20;99.90;;;;;;4997318;28;20610;-52
2021/11/28 02:48:37;;;;;;;21.97;12.87;;;5.20;99.90;;;;;;4997121;28;20209;-56
2021/11/28 02:51:05;;;;;;;24.60;13.30;;;5.10;99.90;;;;;;4998551;28;20240;-54
2021/11/28 02:53:32;;;;;;;22.90;13.17;;;5.10;99.90;;;;;;4998931;28;20634;-53
2021/11/28 02:56:04;;;;;;;25.07;12.73;;;5.20;99.90;;;;;;4999499;28;20211;-54
2021/11/28 02:58:33;;;;;;;25.23;12.87;;;5.20;99.90;;;;;;4997708;28;20287;-54
2021/11/28 03:01:10;;;;;;;21.10;12.57;;;5.30;99.90;;;;;;4999580;28;20201;-54
2021/11/28 03:03:38;;;;;;;20.23;13.13;;;5.30;99.90;;;;;;4998353;28;20198;-54
2021/11/28 03:06:05;;;;;;;20.97;12.70;;;5.40;99.90;;;;;;4995852;28;20244;-54
2021/11/28 03:08:33;;;;;;;23.50;13.53;;;5.30;99.90;;;;;;4996791;28;20208;-54
2021/11/28 03:11:00;;;;;;;21.20;12.50;;;5.40;99.90;;;;;;4995214;28;20344;-54
2021/11/28 03:13:28;;;;;;;23.63;12.97;;;5.30;99.90;;;;;;4994632;28;20340;-53
2021/11/28 03:15:58;;;;;;;22.40;13.00;;;5.20;99.90;;;;;;4998783;28;20665;-54
2021/11/28 03:18:27;;;;;;;22.87;12.87;;;5.30;99.90;;;;;;4997981;28;20704;-52
2021/11/28 03:20:58;;;;;;;22.00;12.90;;;5.30;99.90;;;;;;4996482;28;20824;-55
2021/11/28 03:23:28;;;;;;;26.87;12.83;;;5.30;99.90;;;;;;4997639;28;20236;-54
2021/11/28 03:26:27;;;;;;;20.80;12.20;;;5.40;99.90;;;;;;4999844;28;20209;-54
2021/11/28 03:29:15;;;;;;;23.03;13.43;;;5.30;99.90;;;;;;4998344;28;20244;-55
2021/11/28 03:31:46;;;;;;;23.90;13.23;;;5.30;99.90;;;;;;4996333;28;20578;-54
2021/11/28 03:34:14;;;;;;;25.33;14.40;;;5.20;99.90;;;;;;4996083;28;20360;-52
2021/11/28 03:36:55;;;;;;;22.60;12.43;;;5.20;99.90;;;;;;4997693;28;21201;-55
2021/11/28 03:39:25;;;;;;;21.17;12.60;;;5.20;99.90;;;;;;4998162;28;20225;-53
2021/11/28 03:41:56;;;;;;;22.20;12.97;;;5.10;99.90;;;;;;4997796;28;20557;-53
2021/11/28 03:44:26;;;;;;;22.43;12.53;;;5.10;99.90;;;;;;4996853;28;20676;-54
2021/11/28 03:46:54;;;;;;;21.53;12.60;;;5.10;99.90;;;;;;4995348;28;20875;-53
2021/11/28 03:49:21;;;;;;;19.40;12.67;;;5.00;99.90;;;;;;5000144;28;20209;-53
2021/11/28 03:51:48;;;;;;;20.57;12.50;;;5.00;99.90;;;;;;4996739;28;20205;-53
2021/11/28 03:54:15;;;;;;;20.70;12.17;;;5.20;99.90;;;;;;4997809;28;20201;-53
2021/11/28 03:56:42;;;;;;;20.43;13.03;;;5.20;99.90;;;;;;4997822;28;20205;-53
2021/11/28 03:59:08;;;;;;;20.03;12.80;;;5.10;99.90;;;;;;4996826;28;20316;-53
2021/11/28 04:01:35;;;;;;;22.83;12.07;;;5.10;99.90;;;;;;4998068;28;20713;-52
2021/11/28 04:04:02;;;;;;;20.10;11.77;;;5.00;99.90;;;;;;4998800;28;20296;-53
2021/11/28 04:06:29;;;;;;;20.93;13.40;;;5.20;99.90;;;;;;4997682;28;20237;-54
2021/11/28 04:08:56;;;;;;;17.33;11.27;;;5.20;99.90;;;;;;4998173;28;20233;-54
2021/11/28 04:11:23;;;;;;;18.43;10.90;;;5.20;99.90;;;;;;4997906;28;20287;-54
2021/11/28 04:13:50;;;;;;;19.37;12.47;;;5.30;99.90;;;;;;4998685;28;20265;-53
2021/11/28 04:16:17;;;;;;;17.90;10.33;;;5.30;99.90;;;;;;5000077;28;20233;-54
2021/11/28 04:18:44;;;;;;;21.17;12.37;;;5.30;99.90;;;;;;4997595;28;21303;-53
2021/11/28 04:21:11;;;;;;;18.43;10.90;;;5.40;99.90;;;;;;4995607;28;20703;-54
2021/11/28 04:23:38;;;;;;;20.37;11.57;;;5.30;99.90;;;;;;4997312;28;20293;-54
2021/11/28 04:26:05;;;;;;;20.33;11.67;;;5.30;99.90;;;;;;4998825;28;20568;-55
2021/11/28 04:28:33;;;;;;;17.53;10.83;;;5.30;99.90;;;;;;4997518;28;20200;-55
2021/11/28 04:30:59;;;;;;;18.27;9.93;;;5.30;99.90;;;;;;4996603;28;20260;-52
2021/11/28 04:33:27;;;;;;;16.60;9.87;;;5.30;99.90;;;;;;4998549;28;20197;-51
2021/11/28 04:35:54;;;;;;;19.10;10.73;;;5.20;99.90;;;;;;4995776;28;20254;-53
2021/11/28 04:38:21;;;;;;;15.50;9.80;;;5.30;99.90;;;;;;4998649;28;20197;-55
2021/11/28 04:40:48;;;;;;;19.43;10.97;;;5.20;99.90;;;;;;5001596;28;20227;-53
2021/11/28 04:43:14;;;;;;;15.63;8.73;;;5.10;99.90;;;;;;5002021;28;20234;-53
2021/11/28 04:45:41;;;;;;;16.93;9.47;;;5.10;99.90;;;;;;5001032;28;20200;-54
2021/11/28 04:48:08;;;;;;;17.77;10.10;;;5.10;99.90;;;;;;5003074;28;20310;-51
2021/11/28 04:50:37;;;;;;;14.63;9.07;;;5.20;99.90;;;;;;5002484;28;20200;-52
2021/11/28 04:53:04;;;;;;;17.03;10.23;;;5.30;99.90;;;;;;5001100;28;20233;-53
2021/11/28 04:55:31;;;;;;;17.63;10.77;;;5.40;99.90;;;;;;5002293;28;20244;-53
2021/11/28 04:57:58;;;;;;;20.50;10.57;;;5.30;99.90;;;;;;4999444;28;20306;-52
2021/11/28 05:00:26;;;;;;;17.13;9.60;;;5.30;99.90;;;;;;5002573;28;20267;-51
2021/11/28 05:02:55;;;;;;;17.00;10.87;;;5.30;99.90;;;;;;5000765;28;20235;-52
2021/11/28 05:05:25;;;;;;;17.33;10.43;;;5.30;99.90;;;;;;5003820;28;20911;-55
2021/11/28 05:07:53;;;;;;;18.47;10.10;;;5.30;99.90;;;;;;5001605;28;20220;-53
2021/11/28 05:10:20;;;;;;;17.07;9.97;;;5.30;99.90;;;;;;5002246;28;20206;-52
2021/11/28 05:12:47;;;;;;;17.70;9.97;;;5.30;99.90;;;;;;5000003;28;20215;-52
2021/11/28 05:15:15;;;;;;;21.87;10.70;;;5.40;99.90;;;;;;5002200;28;20295;-52
2021/11/28 05:17:42;;;;;;;15.27;9.57;;;5.30;99.90;;;;;;5000490;28;20275;-52
2021/11/28 05:20:09;;;;;;;17.20;10.53;;;5.40;99.90;;;;;;5000228;28;20246;-51
2021/11/28 05:22:37;;;;;;;23.23;11.43;;;5.40;99.90;;;;;;4999681;28;20212;-52
2021/11/28 05:25:05;;;;;;;16.53;10.07;;;5.30;99.90;;;;;;5000707;28;20201;-51
2021/11/28 05:27:32;;;;;;;19.90;11.20;;;5.40;99.90;;;;;;4999602;28;20338;-50
2021/11/28 05:29:59;;;;;;;20.33;10.77;;;5.40;99.90;;;;;;4999988;28;20251;-54
2021/11/28 05:32:26;;;;;;;18.37;10.77;;;5.40;99.90;;;;;;4999829;28;20256;-52
2021/11/28 05:34:53;;;;;;;20.20;11.17;;;5.40;99.90;;;;;;5000702;28;20259;-52
2021/11/28 05:37:21;;;;;;;17.57;10.03;;;5.50;99.90;;;;;;4998459;28;20229;-53
2021/11/28 05:39:48;;;;;;;19.40;10.53;;;5.30;99.90;;;;;;5000751;28;20223;-56
2021/11/28 05:42:15;;;;;;;18.87;11.13;;;5.40;99.90;;;;;;5000706;28;20240;-53
2021/11/28 05:44:42;;;;;;;22.77;12.60;;;5.40;99.90;;;;;;5002140;28;20234;-54
2021/11/28 05:47:09;;;;;;;22.30;11.53;;;5.40;99.90;;;;;;4998180;28;20255;-53
2021/11/28 05:49:36;;;;;;;22.90;12.13;;;5.40;99.90;;;;;;4999580;28;20305;-52
2021/11/28 05:52:03;;;;;;;21.23;11.83;;;5.50;99.90;;;;;;5000312;28;20300;-54
2021/11/28 05:54:30;;;;;;;20.93;11.07;;;5.20;99.90;;;;;;5003849;28;20222;-53
2021/11/28 05:56:56;;;;;;;21.03;11.73;;;5.30;99.90;;;;;;4999962;28;20301;-52
2021/11/28 05:59:23;;;;;;;23.80;12.40;;;5.40;99.90;;;;;;5000173;28;20251;-53
2021/11/28 06:01:50;;;;;;;20.33;11.93;;;5.40;99.90;;;;;;4999961;28;20262;-57
2021/11/28 06:04:17;;;;;;;22.87;12.73;;;5.40;99.90;;;;;;5001491;28;20211;-52
2021/11/28 06:06:44;;;;;;;23.30;13.20;;;5.30;99.90;;;;;;5002163;28;20320;-52
2021/11/28 06:09:11;;;;;;;25.80;13.27;;;5.40;99.90;;;;;;4997172;28;20296;-53
2021/11/28 06:11:38;;;;;;;21.10;12.77;;;5.30;99.90;;;;;;5001630;28;20204;-53
2021/11/28 06:14:05;;;;;;;23.77;13.47;;;5.30;99.90;;;;;;4998977;28;20252;-54
2021/11/28 06:16:32;;;;;;;20.63;12.30;;;5.30;99.90;;;;;;5010153;28;20731;-54
2021/11/28 06:18:59;;;;;;;26.37;13.97;;;5.20;99.90;;;;;;4999427;28;20218;-54
2021/11/28 06:21:25;;;;;;;22.80;13.20;;;5.10;99.90;;;;;;5000299;28;20239;-52
2021/11/28 06:23:53;;;;;;;24.63;13.20;;;5.10;99.90;;;;;;4999184;28;20207;-55
2021/11/28 06:26:20;;;;;;;24.53;13.13;;;5.00;99.90;;;;;;5000260;28;20716;-52
2021/11/28 06:28:47;;;;;;;28.07;13.53;;;5.20;99.90;;;;;;4995364;28;21101;-53
2021/11/28 06:31:14;;;;;;;26.60;14.77;;;5.10;99.90;;;;;;5000571;28;20285;-53
2021/11/28 06:33:41;;;;;;;26.83;15.60;;;4.90;99.90;;;;;;5000486;28;20648;-54
2021/11/28 06:36:08;;;;;;;28.17;15.50;;;5.00;99.90;;;;;;4999593;28;20345;-53
2021/11/28 06:38:36;;;;;;;29.07;16.50;;;5.00;99.90;;;;;;4997560;28;20245;-51
2021/11/28 06:41:02;;;;;;;27.13;15.50;;;5.00;99.90;;;;;;4999515;28;20219;-55
2021/11/28 06:43:30;;;;;;;30.17;16.63;;;5.00;99.90;;;;;;5001027;28;20291;-52
2021/11/28 06:45:57;;;;;;;31.03;16.43;;;5.10;99.90;;;;;;4998385;28;20295;-54
2021/11/28 06:48:24;;;;;;;31.90;16.93;;;5.10;99.90;;;;;;4998118;28;20209;-52
2021/11/28 06:50:51;;;;;;;32.80;17.60;;;5.10;99.90;;;;;;5000337;28;20292;-53
2021/11/28 06:53:18;;;;;;;28.73;16.67;;;5.20;99.90;;;;;;4995543;28;20407;-53
2021/11/28 06:55:45;;;;;;;29.23;16.70;;;5.20;99.90;;;;;;4999452;28;20213;-56
2021/11/28 06:58:12;;;;;;;32.57;17.63;;;5.10;99.90;;;;;;4998091;28;20289;-52
2021/11/28 07:00:39;;;;;;;34.47;18.50;;;5.10;99.90;;;;;;4994092;28;20866;-54
2021/11/28 07:03:06;;;;;;;30.33;16.47;;;5.20;99.90;;;;;;4995761;28;20235;-55
2021/11/28 07:05:33;;;;;;;31.40;16.13;;;5.20;99.90;;;;;;4997114;28;20245;-53
2021/11/28 07:08:00;;;;;;;30.87;17.30;;;5.20;99.90;;;;;;4995263;28;20285;-53
2021/11/28 07:10:27;;;;;;;32.57;18.03;;;5.20;99.90;;;;;;4999110;28;20255;-52
2021/11/28 07:12:54;;;;;;;30.07;16.70;;;5.10;99.90;;;;;;4999242;28;20234;-54
2021/11/28 07:15:20;;;;;;;30.03;17.27;;;5.10;99.90;;;;;;4999648;28;20376;-53
2021/11/28 07:17:47;;;;;;;32.70;17.43;;;5.10;99.90;;;;;;4997110;28;20203;-53
2021/11/28 07:20:14;;;;;;;35.17;18.57;;;5.00;99.90;;;;;;5000687;28;20704;-51
2021/11/28 07:22:41;;;;;;;35.33;19.43;;;5.00;99.90;;;;;;4998388;28;20298;-55
2021/11/28 07:25:08;;;;;;;34.13;19.20;;;4.90;99.90;;;;;;4995586;28;20215;-54
2021/11/28 07:27:35;;;;;;;29.97;17.33;;;4.90;99.90;;;;;;4996647;28;20240;-51
2021/11/28 07:30:03;;;;;;;32.97;17.50;;;4.90;99.90;;;;;;4993174;28;20297;-52
2021/11/28 07:32:30;;;;;;;29.77;17.30;;;4.90;99.90;;;;;;4995774;28;20206;-53
2021/11/28 07:34:56;;;;;;;32.83;16.90;;;4.90;99.90;;;;;;4996425;28;20241;-52
2021/11/28 07:37:24;;;;;;;33.83;18.37;;;4.90;99.90;;;;;;4993836;28;20365;-56
2021/11/28 07:39:50;;;;;;;30.50;18.27;;;4.80;99.90;;;;;;4991351;28;20903;-53
2021/11/28 07:42:19;;;;;;;34.00;17.57;;;4.80;99.90;;;;;;4992926;28;20289;-51
2021/11/28 07:44:45;;;;;;;32.53;19.00;;;4.70;99.90;;;;;;4994533;28;20301;-55
2021/11/28 07:47:12;;;;;;;35.17;18.93;;;4.90;99.90;;;;;;4996885;28;20290;-53
2021/11/28 07:49:39;;;;;;;33.93;18.50;;;4.70;99.90;;;;;;4995981;28;20199;-51
2021/11/28 07:52:07;;;;;;;36.13;20.00;;;4.70;99.90;;;;;;4997324;28;20211;-55
2021/11/28 07:54:34;;;;;;;35.77;20.03;;;4.60;99.90;;;;;;4996260;28;20286;-52
2021/11/28 07:57:03;;;;;;;36.37;20.33;;;4.70;99.90;;;;;;4995258;28;20275;-52
2021/11/28 07:59:33;;;;;;;35.03;18.90;;;4.70;99.90;;;;;;4995239;28;20296;-53
2021/11/28 08:02:01;;;;;;;37.23;20.03;;;4.80;99.90;;;;;;4995093;28;20201;-53
2021/11/28 08:04:28;;;;;;;35.60;19.20;;;4.80;99.90;;;;;;4997917;28;20212;-52
2021/11/28 08:06:55;;;;;;;35.30;20.27;;;5.00;99.90;;;;;;4996630;28;20379;-52
2021/11/28 08:09:22;;;;;;;37.97;19.60;;;5.00;99.90;;;;;;4993706;28;20721;-54
2021/11/28 08:11:49;;;;;;;35.97;18.67;;;4.90;99.90;;;;;;4995074;28;20202;-54
2021/11/28 08:14:16;;;;;;;28.80;18.13;;;4.80;99.90;;;;;;4990697;28;20672;-53
2021/11/28 08:16:44;;;;;;;33.90;17.80;;;4.90;99.90;;;;;;4993344;28;20207;-53
2021/11/28 08:19:11;;;;;;;33.90;17.93;;;5.00;99.90;;;;;;4995510;28;20218;-53
2021/11/28 08:21:37;;;;;;;32.40;17.23;;;5.10;99.90;;;;;;4995342;28;20300;-53
2021/11/28 08:24:05;;;;;;;34.20;19.23;;;5.00;99.90;;;;;;4992493;28;20287;-54
2021/11/28 08:26:34;;;;;;;28.43;16.43;;;5.00;99.90;;;;;;4992225;28;20240;-53
2021/11/28 08:29:02;;;;;;;28.63;16.37;;;5.10;99.90;;;;;;4993903;28;21077;-54
2021/11/28 08:31:29;;;;;;;29.73;16.23;;;5.30;99.90;;;;;;4991053;28;20637;-54
2021/11/28 08:33:56;;;;;;;28.60;16.37;;;5.40;99.90;;;;;;4995102;28;20907;-53
2021/11/28 08:36:23;;;;;;;31.43;16.57;;;5.30;99.90;;;;;;4994668;28;20370;-52
2021/11/28 08:38:52;;;;;;;25.63;15.53;;;5.20;99.90;;;;;;4994299;28;20375;-52
2021/11/28 08:41:22;;;;;;;25.37;15.27;;;5.30;99.90;;;;;;4994394;28;20255;-52
2021/11/28 08:43:51;;;;;;;22.17;14.57;;;5.40;99.90;;;;;;4989548;28;20304;-53
2021/11/28 08:46:19;;;;;;;22.73;14.67;;;5.60;99.90;;;;;;4993532;28;20235;-52
2021/11/28 08:48:47;;;;;;;24.63;13.70;;;5.70;99.90;;;;;;4994452;28;20262;-52
2021/11/28 08:51:14;;;;;;;25.43;14.70;;;5.70;99.90;;;;;;4995142;28;20264;-55
2021/11/28 08:53:43;;;;;;;21.70;13.30;;;5.70;99.90;;;;;;4994621;28;20342;-54
2021/11/28 08:56:10;;;;;;;22.87;12.90;;;5.90;99.90;;;;;;4993230;28;20206;-53
2021/11/28 08:58:37;;;;;;;24.40;14.20;;;5.80;99.90;;;;;;4991912;28;20239;-54
2021/11/28 09:01:04;;;;;;;20.47;12.20;;;5.90;99.90;;;;;;4994742;28;20221;-51
2021/11/28 09:03:31;;;;;;;22.10;13.50;;;5.90;99.90;;;;;;4996585;28;20261;-52
2021/11/28 09:05:58;;;;;;;22.30;12.17;;;6.30;99.90;;;;;;4997798;28;20295;-54
2021/11/28 09:08:25;;;;;;;21.40;12.03;;;6.30;99.90;;;;;;4996411;28;20212;-53
2021/11/28 09:10:52;;;;;;;19.50;11.67;;;6.40;99.90;;;;;;4997754;28;20710;-54
2021/11/28 09:13:19;;;;;;;20.17;12.53;;;6.20;99.90;;;;;;4994457;28;20846;-53
2021/11/28 09:15:46;;;;;;;19.83;12.60;;;6.20;99.90;;;;;;4996840;28;20250;-52
2021/11/28 09:18:45;;;;;;;20.37;11.60;;;6.20;99.90;;;;;;4996023;28;20214;-53
2021/11/28 09:21:15;;;;;;;20.90;11.87;;;6.30;99.90;;;;;;4996552;28;20295;-54
2021/11/28 09:26:30;;;;;;;22.27;12.97;;;7.00;99.90;;;;;;4996035;28;20208;-54
2021/11/28 09:29:01;;;;;;;19.77;12.63;;;7.10;99.90;;;;;;4999942;28;20238;-53
2021/11/28 09:31:30;;;;;;;21.83;12.57;;;7.00;99.90;;;;;;4998153;28;20638;-53
2021/11/28 09:33:58;;;;;;;22.13;12.83;;;6.70;99.90;;;;;;4994003;28;20310;-52
2021/11/28 09:36:27;;;;;;;20.33;11.67;;;6.70;99.90;;;;;;4997508;28;20242;-55
2021/11/28 09:38:55;;;;;;;19.77;12.03;;;6.70;99.90;;;;;;4999379;28;21006;-51
2021/11/28 09:41:24;;;;;;;19.30;11.07;;;6.40;99.90;;;;;;4999745;28;20677;-54
2021/11/28 09:43:55;;;;;;;18.67;12.13;;;6.40;99.90;;;;;;4993766;28;20691;-51
2021/11/28 09:46:24;;;;;;;17.97;11.27;;;6.40;99.90;;;;;;4993550;28;20744;-53
2021/11/28 09:49:01;;;;;;;17.43;10.43;;;6.60;99.90;;;;;;4997904;28;20709;-53
2021/11/28 09:51:28;;;;;;;18.93;10.60;;;6.30;99.90;;;;;;4998065;28;20329;-52
2021/11/28 09:53:57;;;;;;;18.33;10.63;;;6.40;99.90;;;;;;4994087;28;20635;-55
2021/11/28 09:56:26;;;;;;;16.13;10.67;;;6.60;99.90;;;;;;4996614;28;20252;-52
2021/11/28 09:58:54;;;;;;;15.23;10.17;;;6.50;99.90;;;;;;4995399;28;20340;-54
2021/11/28 10:01:22;;;;;;;16.47;10.17;;;6.30;99.90;;;;;;4990863;28;20864;-53
2021/11/28 10:03:50;;;;;;;15.13;9.63;;;6.50;99.90;;;;;;4994026;28;20252;-52
2021/11/28 10:06:18;;;;;;;14.87;9.40;;;6.60;99.90;;;;;;4995726;28;20236;-52
2021/11/28 10:08:46;;;;;;;13.77;9.30;;;6.90;99.90;;;;;;4998121;28;20671;-54
2021/11/28 10:11:19;;;;;;;14.63;9.77;;;6.90;99.90;;;;;;4995142;28;20276;-52
2021/11/28 10:13:52;;;;;;;14.20;9.60;;;7.00;99.90;;;;;;4994514;28;20228;-52
2021/11/28 10:16:20;;;;;;;14.03;8.57;;;7.00;99.90;;;;;;5010849;28;20238;-52
2021/11/28 10:18:47;;;;;;;11.10;7.47;;;6.70;99.90;;;;;;4990742;28;20205;-52
2021/11/28 10:21:15;;;;;;;10.97;7.40;;;6.60;99.90;;;;;;4995240;28;20595;-52
2021/11/28 10:24:11;;;;;;;12.57;7.30;;;6.60;99.90;;;;;;4993966;28;20244;-51
2021/11/28 10:27:09;;;;;;;12.37;7.90;;;6.50;99.90;;;;;;4991622;28;20796;-54
2021/11/28 10:29:40;;;;;;;10.60;6.97;;;6.40;99.90;;;;;;4993742;28;20231;-53
2021/11/28 10:32:09;;;;;;;10.83;6.67;;;6.40;99.90;;;;;;4997059;28;20206;-54
2021/11/28 10:34:42;;;;;;;12.63;7.47;;;6.20;99.90;;;;;;5001174;28;20244;-53
2021/11/28 10:37:15;;;;;;;11.37;7.43;;;6.20;99.90;;;;;;4998405;28;20340;-53
2021/11/28 10:39:48;;;;;;;12.17;7.50;;;6.20;99.90;;;;;;4998957;28;20705;-52
2021/11/28 10:42:28;;;;;;;12.83;8.17;;;6.20;99.90;;;;;;4997648;28;20260;-55
2021/11/28 10:45:03;;;;;;;13.93;8.90;;;6.20;99.90;;;;;;4997604;28;20195;-54
2021/11/28 10:47:45;;;;;;;13.20;8.67;;;6.20;99.90;;;;;;4997722;28;20380;-53
2021/11/28 10:50:15;;;;;;;14.83;8.30;;;6.30;99.90;;;;;;4999122;28;20204;-53
2021/11/28 10:52:44;;;;;;;14.57;7.97;;;6.30;99.90;;;;;;4999365;28;20204;-53
2021/11/28 10:55:18;;;;;;;15.03;8.70;;;6.30;99.90;;;;;;5001547;28;21018;-53
2021/11/28 10:57:45;;;;;;;17.60;9.33;;;6.40;99.90;;;;;;4998491;28;20211;-53
2021/11/28 11:00:14;;;;;;;18.20;10.30;;;6.30;99.90;;;;;;4998440;28;20352;-55
2021/11/28 11:02:42;;;;;;;16.47;10.20;;;6.30;99.90;;;;;;4996082;28;20277;-53
2021/11/28 11:05:12;;;;;;;18.13;10.87;;;6.20;99.90;;;;;;4996699;28;20333;-53
2021/11/28 11:07:54;;;;;;;17.30;11.20;;;6.20;99.90;;;;;;4999756;28;20210;-51
2021/11/28 11:10:27;;;;;;;20.67;12.17;;;6.30;99.90;;;;;;4995381;28;20804;-54
2021/11/28 11:12:54;;;;;;;22.57;13.17;;;6.20;99.90;;;;;;4998664;28;20209;-52
2021/11/28 11:15:46;;;;;;;18.03;11.57;;;6.30;99.90;;;;;;4998719;28;20297;-52
2021/11/28 11:18:23;;;;;;;20.67;13.23;;;6.30;99.90;;;;;;4998324;28;20640;-52
2021/11/28 11:21:03;;;;;;;21.77;13.67;;;6.10;99.90;;;;;;5000138;28;20219;-53
2021/11/28 11:23:39;;;;;;;20.67;13.03;;;6.10;99.90;;;;;;4999160;28;20241;-53
2021/11/28 11:26:15;;;;;;;23.37;14.23;;;6.00;99.90;;;;;;5000570;28;20236;-53
2021/11/28 11:29:00;;;;;;;18.23;11.60;;;6.00;99.90;;;;;;4999031;28;20592;-52
2021/11/28 11:31:27;;;;;;;12.90;8.07;;;5.80;99.90;;;;;;4999206;28;20293;-52
2021/11/28 11:33:54;;;;;;;12.20;7.90;;;5.70;99.90;;;;;;4996007;28;20284;-56
2021/11/28 11:36:22;;;;;;;12.33;7.43;;;5.60;99.90;;;;;;4997562;28;20247;-53
2021/11/28 11:38:50;;;;;;;10.67;5.83;;;5.70;99.90;;;;;;4999751;28;20640;-54
2021/11/28 11:41:18;;;;;;;8.53;5.37;;;5.70;99.90;;;;;;4998934;28;20303;-54
2021/11/28 11:43:46;;;;;;;8.10;5.23;;;5.80;99.90;;;;;;4997754;28;20687;-54
2021/11/28 11:46:16;;;;;;;7.70;5.17;;;5.60;99.90;;;;;;4998006;28;20200;-55
2021/11/28 11:48:43;;;;;;;7.23;4.60;;;5.60;99.90;;;;;;4997462;28;20264;-54
2021/11/28 11:51:10;;;;;;;7.60;5.03;;;5.70;99.90;;;;;;4995840;28;20265;-52
2021/11/28 11:53:37;;;;;;;8.83;4.90;;;5.80;99.90;;;;;;4996983;28;20254;-54
2021/11/28 11:56:10;;;;;;;7.53;5.20;;;5.80;99.90;;;;;;4998675;28;20238;-53
2021/11/28 11:58:39;;;;;;;8.83;5.10;;;5.90;99.90;;;;;;4997315;28;20261;-53
2021/11/28 12:01:15;;;;;;;8.93;5.50;;;5.80;99.90;;;;;;4996974;28;20674;-52
2021/11/28 12:03:54;;;;;;;7.60;4.97;;;6.00;99.90;;;;;;4998884;28;20208;-53
2021/11/28 12:06:41;;;;;;;7.87;4.87;;;6.00;99.90;;;;;;4999076;28;20299;-56
2021/11/28 12:09:25;;;;;;;6.60;4.30;;;6.10;99.90;;;;;;5000841;28;20212;-51
2021/11/28 12:11:54;;;;;;;6.83;4.27;;;6.00;99.90;;;;;;4999727;28;20259;-54
2021/11/28 12:14:21;;;;;;;6.23;4.30;;;6.20;99.90;;;;;;4997959;28;20239;-54
2021/11/28 12:16:48;;;;;;;8.03;4.00;;;6.10;99.90;;;;;;4997407;28;20210;-52
2021/11/28 12:19:41;;;;;;;6.40;3.70;;;6.00;99.90;;;;;;4998192;28;20267;-55
2021/11/28 12:22:36;;;;;;;2.47;1.80;;;6.00;99.90;;;;;;4999457;28;20224;-51
2021/11/28 12:25:40;;;;;;;3.30;2.33;;;5.80;99.90;;;;;;4997271;28;21311;-51
2021/11/28 12:28:19;;;;;;;3.20;2.23;;;5.80;99.90;;;;;;4997371;28;20658;-54
2021/11/28 12:31:09;;;;;;;3.13;1.20;;;5.70;99.90;;;;;;4998492;28;20301;-54
2021/11/28 12:33:51;;;;;;;4.07;0.60;;;5.50;99.90;;;;;;4997910;28;20395;-51
2021/11/28 12:36:34;;;;;;;4.33;1.20;;;5.50;99.90;;;;;;4999744;28;20251;-53
2021/11/28 12:39:15;;;;;;;1.17;0.40;;;5.50;99.90;;;;;;4994329;28;20209;-52
2021/11/28 12:41:50;;;;;;;1.13;0.60;;;5.50;99.90;;;;;;4998386;28;20242;-53
2021/11/28 12:44:19;;;;;;;1.50;0.63;;;5.50;99.90;;;;;;4997639;28;20292;-52
2021/11/28 12:46:48;;;;;;;0.80;0.73;;;5.30;99.90;;;;;;4997343;28;20311;-54
2021/11/28 12:49:44;;;;;;;1.40;0.70;;;5.20;99.90;;;;;;4998477;28;20602;-52
2021/11/28 12:52:32;;;;;;;1.23;0.53;;;5.30;99.90;;;;;;4998454;28;20257;-52
2021/11/28 12:55:08;;;;;;;3.73;1.83;;;5.30;99.90;;;;;;4998352;28;20780;-52
2021/11/28 12:57:54;;;;;;;1.43;1.00;;;5.30;99.90;;;;;;4998249;28;21108;-51
2021/11/28 13:00:24;;;;;;;1.97;1.00;;;5.30;99.90;;;;;;5001756;28;20238;-53
2021/11/28 13:03:08;;;;;;;1.63;0.70;;;5.40;99.90;;;;;;5000462;28;20249;-53